sensor_id;sensor_type;location;lat;lon;timestamp;P1;durP1;ratioP1;P2;durP2;ratioP2
11665;SDS011;5889;51.350;6.708;2024-01-25T00:01:47;54.77;;;9.13;;
11665;SDS011;5889;51.350;6.708;2024-01-25T00:04:14;46.90;;;8.70;;
11665;SDS011;5889;51.350;6.708;2024-01-25T00:06:41;35.10;;;7.53;;
11665;SDS011;5889;51.350;6.708;2024-01-25T00:09:07;43.93;;;8.53;;
11665;SDS011;5889;51.350;6.708;2024-01-25T00:11:34;41.90;;;7.73;;
11665;SDS011;5889;51.350;6.708;2024-01-25T00:14:03;36.07;;;7.13;;
11665;SDS011;5889;51.350;6.708;2024-01-25T00:16:29;50.37;;;7.33;;
11665;SDS011;5889;51.350;6.708;2024-01-25T00:18:56;42.30;;;7.10;;
11665;SDS011;5889;51.350;6.708;2024-01-25T00:21:23;46.07;;;7.50;;
11665;SDS011;5889;51.350;6.708;2024-01-25T00:23:50;40.73;;;8.23;;
11665;SDS011;5889;51.350;6.708;2024-01-25T00:26:17;33.57;;;6.93;;
11665;SDS011;5889;51.350;6.708;2024-01-25T00:28:44;50.27;;;8.33;;
11665;SDS011;5889;51.350;6.708;2024-01-25T00:31:12;37.40;;;6.90;;
11665;SDS011;5889;51.350;6.708;2024-01-25T00:33:39;44.23;;;7.60;;
11665;SDS011;5889;51.350;6.708;2024-01-25T00:36:06;43.83;;;8.10;;
11665;SDS011;5889;51.350;6.708;2024-01-25T00:38:34;47.33;;;8.70;;
11665;SDS011;5889;51.350;6.708;2024-01-25T00:41:02;42.20;;;8.20;;
11665;SDS011;5889;51.350;6.708;2024-01-25T00:43:30;46.83;;;7.90;;
11665;SDS011;5889;51.350;6.708;2024-01-25T00:45:57;43.97;;;7.50;;
11665;SDS011;5889;51.350;6.708;2024-01-25T00:48:26;42.50;;;7.03;;
11665;SDS011;5889;51.350;6.708;2024-01-25T00:50:54;46.20;;;7.00;;
11665;SDS011;5889;51.350;6.708;2024-01-25T00:53:21;44.33;;;7.23;;
11665;SDS011;5889;51.350;6.708;2024-01-25T00:55:49;47.87;;;8.40;;
11665;SDS011;5889;51.350;6.708;2024-01-25T00:58:16;41.07;;;6.67;;
11665;SDS011;5889;51.350;6.708;2024-01-25T01:00:44;36.13;;;6.70;;
11665;SDS011;5889;51.350;6.708;2024-01-25T01:03:11;41.80;;;7.50;;
11665;SDS011;5889;51.350;6.708;2024-01-25T01:05:42;42.33;;;7.33;;
11665;SDS011;5889;51.350;6.708;2024-01-25T01:08:09;43.33;;;7.50;;
11665;SDS011;5889;51.350;6.708;2024-01-25T01:10:37;37.53;;;7.63;;
11665;SDS011;5889;51.350;6.708;2024-01-25T01:13:04;37.53;;;7.33;;
11665;SDS011;5889;51.350;6.708;2024-01-25T01:15:31;43.37;;;7.30;;
11665;SDS011;5889;51.350;6.708;2024-01-25T01:17:58;38.37;;;6.77;;
11665;SDS011;5889;51.350;6.708;2024-01-25T01:20:25;39.67;;;7.40;;
11665;SDS011;5889;51.350;6.708;2024-01-25T01:22:53;40.73;;;7.40;;
11665;SDS011;5889;51.350;6.708;2024-01-25T01:25:20;32.57;;;6.10;;
11665;SDS011;5889;51.350;6.708;2024-01-25T01:27:47;40.53;;;6.70;;
11665;SDS011;5889;51.350;6.708;2024-01-25T01:30:14;38.80;;;7.80;;
11665;SDS011;5889;51.350;6.708;2024-01-25T01:32:41;37.27;;;6.30;;
11665;SDS011;5889;51.350;6.708;2024-01-25T01:35:08;37.03;;;7.43;;
11665;SDS011;5889;51.350;6.708;2024-01-25T01:37:35;39.87;;;7.13;;
11665;SDS011;5889;51.350;6.708;2024-01-25T01:40:04;42.20;;;6.73;;
11665;SDS011;5889;51.350;6.708;2024-01-25T01:42:31;36.37;;;6.47;;
11665;SDS011;5889;51.350;6.708;2024-01-25T01:44:59;37.43;;;6.57;;
11665;SDS011;5889;51.350;6.708;2024-01-25T01:47:26;50.57;;;8.30;;
11665;SDS011;5889;51.350;6.708;2024-01-25T01:49:53;40.13;;;7.60;;
11665;SDS011;5889;51.350;6.708;2024-01-25T01:52:20;49.00;;;7.23;;
11665;SDS011;5889;51.350;6.708;2024-01-25T01:54:47;32.57;;;6.97;;
11665;SDS011;5889;51.350;6.708;2024-01-25T01:57:16;44.37;;;7.93;;
11665;SDS011;5889;51.350;6.708;2024-01-25T01:59:43;33.20;;;6.90;;
11665;SDS011;5889;51.350;6.708;2024-01-25T02:02:11;36.77;;;7.60;;
11665;SDS011;5889;51.350;6.708;2024-01-25T02:04:38;45.27;;;7.40;;
11665;SDS011;5889;51.350;6.708;2024-01-25T02:07:05;37.47;;;7.53;;
11665;SDS011;5889;51.350;6.708;2024-01-25T02:09:32;42.77;;;7.30;;
11665;SDS011;5889;51.350;6.708;2024-01-25T02:12:01;39.13;;;7.53;;
11665;SDS011;5889;51.350;6.708;2024-01-25T02:14:30;38.57;;;6.93;;
11665;SDS011;5889;51.350;6.708;2024-01-25T02:16:57;42.00;;;7.70;;
11665;SDS011;5889;51.350;6.708;2024-01-25T02:19:24;39.63;;;6.60;;
11665;SDS011;5889;51.350;6.708;2024-01-25T02:21:51;32.33;;;6.33;;
11665;SDS011;5889;51.350;6.708;2024-01-25T02:24:21;43.20;;;7.47;;
11665;SDS011;5889;51.350;6.708;2024-01-25T02:26:48;41.70;;;7.70;;
11665;SDS011;5889;51.350;6.708;2024-01-25T02:29:15;48.37;;;8.17;;
11665;SDS011;5889;51.350;6.708;2024-01-25T02:31:42;37.90;;;6.87;;
11665;SDS011;5889;51.350;6.708;2024-01-25T02:34:09;39.60;;;7.30;;
11665;SDS011;5889;51.350;6.708;2024-01-25T02:36:36;39.00;;;8.03;;
11665;SDS011;5889;51.350;6.708;2024-01-25T02:39:03;43.90;;;6.70;;
11665;SDS011;5889;51.350;6.708;2024-01-25T02:41:32;38.97;;;6.33;;
11665;SDS011;5889;51.350;6.708;2024-01-25T02:43:59;44.00;;;6.87;;
11665;SDS011;5889;51.350;6.708;2024-01-25T02:46:26;44.67;;;7.60;;
11665;SDS011;5889;51.350;6.708;2024-01-25T02:48:53;38.73;;;6.73;;
11665;SDS011;5889;51.350;6.708;2024-01-25T02:51:20;39.00;;;6.67;;
11665;SDS011;5889;51.350;6.708;2024-01-25T02:53:47;35.67;;;6.90;;
11665;SDS011;5889;51.350;6.708;2024-01-25T02:56:14;44.27;;;6.90;;
11665;SDS011;5889;51.350;6.708;2024-01-25T02:58:42;34.57;;;7.33;;
11665;SDS011;5889;51.350;6.708;2024-01-25T03:01:09;43.27;;;6.87;;
11665;SDS011;5889;51.350;6.708;2024-01-25T03:03:36;35.40;;;6.90;;
11665;SDS011;5889;51.350;6.708;2024-01-25T03:06:05;39.70;;;6.00;;
11665;SDS011;5889;51.350;6.708;2024-01-25T03:08:34;37.47;;;7.13;;
11665;SDS011;5889;51.350;6.708;2024-01-25T03:11:01;40.60;;;7.73;;
11665;SDS011;5889;51.350;6.708;2024-01-25T03:13:29;42.83;;;7.33;;
11665;SDS011;5889;51.350;6.708;2024-01-25T03:15:58;40.63;;;8.23;;
11665;SDS011;5889;51.350;6.708;2024-01-25T03:18:25;50.00;;;8.33;;
11665;SDS011;5889;51.350;6.708;2024-01-25T03:20:52;50.20;;;9.17;;
11665;SDS011;5889;51.350;6.708;2024-01-25T03:23:19;39.63;;;8.23;;
11665;SDS011;5889;51.350;6.708;2024-01-25T03:25:46;38.57;;;6.40;;
11665;SDS011;5889;51.350;6.708;2024-01-25T03:28:13;48.30;;;7.03;;
11665;SDS011;5889;51.350;6.708;2024-01-25T03:30:41;41.70;;;6.80;;
11665;SDS011;5889;51.350;6.708;2024-01-25T03:33:09;47.37;;;8.83;;
11665;SDS011;5889;51.350;6.708;2024-01-25T03:35:36;38.03;;;7.53;;
11665;SDS011;5889;51.350;6.708;2024-01-25T03:38:04;46.27;;;7.47;;
11665;SDS011;5889;51.350;6.708;2024-01-25T03:40:30;38.40;;;7.60;;
11665;SDS011;5889;51.350;6.708;2024-01-25T03:42:58;37.90;;;7.07;;
11665;SDS011;5889;51.350;6.708;2024-01-25T03:45:25;48.10;;;6.93;;
11665;SDS011;5889;51.350;6.708;2024-01-25T03:47:51;52.23;;;7.87;;
11665;SDS011;5889;51.350;6.708;2024-01-25T03:50:20;41.23;;;6.80;;
11665;SDS011;5889;51.350;6.708;2024-01-25T03:52:47;50.63;;;8.67;;
11665;SDS011;5889;51.350;6.708;2024-01-25T03:55:14;47.07;;;7.10;;
11665;SDS011;5889;51.350;6.708;2024-01-25T03:57:40;37.03;;;6.77;;
11665;SDS011;5889;51.350;6.708;2024-01-25T04:00:08;46.80;;;6.67;;
11665;SDS011;5889;51.350;6.708;2024-01-25T04:02:36;38.77;;;6.53;;
11665;SDS011;5889;51.350;6.708;2024-01-25T04:05:03;43.23;;;6.90;;
11665;SDS011;5889;51.350;6.708;2024-01-25T04:07:32;52.40;;;8.43;;
11665;SDS011;5889;51.350;6.708;2024-01-25T04:09:59;43.93;;;7.00;;
11665;SDS011;5889;51.350;6.708;2024-01-25T04:12:26;38.83;;;6.37;;
11665;SDS011;5889;51.350;6.708;2024-01-25T04:14:53;47.83;;;7.20;;
11665;SDS011;5889;51.350;6.708;2024-01-25T04:17:20;51.97;;;8.03;;
11665;SDS011;5889;51.350;6.708;2024-01-25T04:19:47;42.73;;;7.50;;
11665;SDS011;5889;51.350;6.708;2024-01-25T04:22:14;44.77;;;6.63;;
11665;SDS011;5889;51.350;6.708;2024-01-25T04:24:42;36.33;;;6.30;;
11665;SDS011;5889;51.350;6.708;2024-01-25T04:27:09;39.77;;;7.17;;
11665;SDS011;5889;51.350;6.708;2024-01-25T04:29:37;38.07;;;6.63;;
11665;SDS011;5889;51.350;6.708;2024-01-25T04:32:05;50.90;;;8.47;;
11665;SDS011;5889;51.350;6.708;2024-01-25T04:34:32;48.30;;;7.70;;
11665;SDS011;5889;51.350;6.708;2024-01-25T04:36:59;37.53;;;6.60;;
11665;SDS011;5889;51.350;6.708;2024-01-25T04:39:26;39.63;;;7.27;;
11665;SDS011;5889;51.350;6.708;2024-01-25T04:41:54;46.50;;;7.47;;
11665;SDS011;5889;51.350;6.708;2024-01-25T04:44:21;41.00;;;7.40;;
11665;SDS011;5889;51.350;6.708;2024-01-25T04:46:48;45.80;;;7.33;;
11665;SDS011;5889;51.350;6.708;2024-01-25T04:49:15;38.27;;;7.07;;
11665;SDS011;5889;51.350;6.708;2024-01-25T04:51:41;50.53;;;6.77;;
11665;SDS011;5889;51.350;6.708;2024-01-25T04:54:08;34.07;;;6.33;;
11665;SDS011;5889;51.350;6.708;2024-01-25T04:56:37;37.63;;;7.13;;
11665;SDS011;5889;51.350;6.708;2024-01-25T04:59:06;38.70;;;6.60;;
11665;SDS011;5889;51.350;6.708;2024-01-25T05:01:33;47.00;;;6.90;;
11665;SDS011;5889;51.350;6.708;2024-01-25T05:04:00;43.87;;;6.57;;
11665;SDS011;5889;51.350;6.708;2024-01-25T05:06:26;39.40;;;7.33;;
11665;SDS011;5889;51.350;6.708;2024-01-25T05:08:53;42.50;;;7.43;;
11665;SDS011;5889;51.350;6.708;2024-01-25T05:11:20;37.17;;;8.03;;
11665;SDS011;5889;51.350;6.708;2024-01-25T05:13:47;50.07;;;8.87;;
11665;SDS011;5889;51.350;6.708;2024-01-25T05:16:16;52.43;;;7.90;;
11665;SDS011;5889;51.350;6.708;2024-01-25T05:18:42;58.23;;;8.40;;
11665;SDS011;5889;51.350;6.708;2024-01-25T05:21:09;58.37;;;9.17;;
11665;SDS011;5889;51.350;6.708;2024-01-25T05:23:36;49.50;;;9.80;;
11665;SDS011;5889;51.350;6.708;2024-01-25T05:26:03;45.30;;;10.00;;
11665;SDS011;5889;51.350;6.708;2024-01-25T05:28:32;42.97;;;9.67;;
11665;SDS011;5889;51.350;6.708;2024-01-25T05:30:58;38.97;;;8.73;;
11665;SDS011;5889;51.350;6.708;2024-01-25T05:33:27;56.63;;;9.60;;
11665;SDS011;5889;51.350;6.708;2024-01-25T05:35:54;48.53;;;8.40;;
11665;SDS011;5889;51.350;6.708;2024-01-25T05:38:21;58.40;;;8.70;;
11665;SDS011;5889;51.350;6.708;2024-01-25T05:40:47;39.93;;;7.27;;
11665;SDS011;5889;51.350;6.708;2024-01-25T05:43:14;49.10;;;7.60;;
11665;SDS011;5889;51.350;6.708;2024-01-25T05:45:41;45.77;;;7.80;;
11665;SDS011;5889;51.350;6.708;2024-01-25T05:48:08;53.13;;;8.57;;
11665;SDS011;5889;51.350;6.708;2024-01-25T05:50:36;40.37;;;7.50;;
11665;SDS011;5889;51.350;6.708;2024-01-25T05:53:03;42.70;;;7.77;;
11665;SDS011;5889;51.350;6.708;2024-01-25T05:55:30;40.67;;;7.20;;
11665;SDS011;5889;51.350;6.708;2024-01-25T05:57:57;46.67;;;9.07;;
11665;SDS011;5889;51.350;6.708;2024-01-25T06:00:24;48.00;;;10.90;;
11665;SDS011;5889;51.350;6.708;2024-01-25T06:02:53;50.53;;;8.67;;
11665;SDS011;5889;51.350;6.708;2024-01-25T06:05:20;36.37;;;7.67;;
11665;SDS011;5889;51.350;6.708;2024-01-25T06:07:48;52.60;;;8.17;;
11665;SDS011;5889;51.350;6.708;2024-01-25T06:10:15;53.97;;;9.00;;
11665;SDS011;5889;51.350;6.708;2024-01-25T06:12:42;36.43;;;7.60;;
11665;SDS011;5889;51.350;6.708;2024-01-25T06:15:09;41.07;;;7.43;;
11665;SDS011;5889;51.350;6.708;2024-01-25T06:17:36;53.63;;;7.90;;
11665;SDS011;5889;51.350;6.708;2024-01-25T06:20:03;52.70;;;7.87;;
11665;SDS011;5889;51.350;6.708;2024-01-25T06:22:31;46.87;;;7.80;;
11665;SDS011;5889;51.350;6.708;2024-01-25T06:24:59;53.23;;;6.80;;
11665;SDS011;5889;51.350;6.708;2024-01-25T06:27:26;54.27;;;8.07;;
11665;SDS011;5889;51.350;6.708;2024-01-25T06:29:53;43.60;;;7.23;;
11665;SDS011;5889;51.350;6.708;2024-01-25T06:32:20;38.77;;;7.50;;
11665;SDS011;5889;51.350;6.708;2024-01-25T06:34:47;40.73;;;7.13;;
11665;SDS011;5889;51.350;6.708;2024-01-25T06:37:14;47.27;;;7.63;;
11665;SDS011;5889;51.350;6.708;2024-01-25T06:39:43;45.50;;;7.27;;
11665;SDS011;5889;51.350;6.708;2024-01-25T06:42:12;43.57;;;8.43;;
11665;SDS011;5889;51.350;6.708;2024-01-25T06:44:38;54.27;;;7.17;;
11665;SDS011;5889;51.350;6.708;2024-01-25T06:47:05;51.30;;;7.83;;
11665;SDS011;5889;51.350;6.708;2024-01-25T06:49:35;39.87;;;7.73;;
11665;SDS011;5889;51.350;6.708;2024-01-25T06:52:02;57.57;;;8.70;;
11665;SDS011;5889;51.350;6.708;2024-01-25T06:54:30;49.67;;;7.53;;
11665;SDS011;5889;51.350;6.708;2024-01-25T06:56:57;52.00;;;7.60;;
11665;SDS011;5889;51.350;6.708;2024-01-25T06:59:25;46.17;;;9.30;;
11665;SDS011;5889;51.350;6.708;2024-01-25T07:01:55;43.53;;;7.20;;
11665;SDS011;5889;51.350;6.708;2024-01-25T07:04:22;45.43;;;8.30;;
11665;SDS011;5889;51.350;6.708;2024-01-25T07:06:49;45.90;;;9.20;;
11665;SDS011;5889;51.350;6.708;2024-01-25T07:09:16;51.23;;;9.97;;
11665;SDS011;5889;51.350;6.708;2024-01-25T07:11:43;53.43;;;9.67;;
11665;SDS011;5889;51.350;6.708;2024-01-25T07:14:10;48.43;;;9.13;;
11665;SDS011;5889;51.350;6.708;2024-01-25T07:16:38;52.20;;;9.17;;
11665;SDS011;5889;51.350;6.708;2024-01-25T07:19:05;51.73;;;9.47;;
11665;SDS011;5889;51.350;6.708;2024-01-25T07:21:32;58.20;;;9.30;;
11665;SDS011;5889;51.350;6.708;2024-01-25T07:24:01;49.03;;;9.57;;
11665;SDS011;5889;51.350;6.708;2024-01-25T07:26:29;49.27;;;11.10;;
11665;SDS011;5889;51.350;6.708;2024-01-25T07:28:56;46.33;;;9.13;;
11665;SDS011;5889;51.350;6.708;2024-01-25T07:31:24;53.17;;;9.50;;
11665;SDS011;5889;51.350;6.708;2024-01-25T07:33:53;71.53;;;11.17;;
11665;SDS011;5889;51.350;6.708;2024-01-25T07:36:20;59.23;;;9.50;;
11665;SDS011;5889;51.350;6.708;2024-01-25T07:38:47;43.43;;;8.93;;
11665;SDS011;5889;51.350;6.708;2024-01-25T07:41:14;48.10;;;8.77;;
11665;SDS011;5889;51.350;6.708;2024-01-25T07:43:41;47.80;;;8.70;;
11665;SDS011;5889;51.350;6.708;2024-01-25T07:46:09;57.93;;;8.60;;
11665;SDS011;5889;51.350;6.708;2024-01-25T07:48:39;51.10;;;8.63;;
11665;SDS011;5889;51.350;6.708;2024-01-25T07:51:11;55.80;;;8.70;;
11665;SDS011;5889;51.350;6.708;2024-01-25T07:53:38;67.83;;;9.27;;
11665;SDS011;5889;51.350;6.708;2024-01-25T07:56:06;53.47;;;8.90;;
11665;SDS011;5889;51.350;6.708;2024-01-25T07:58:35;53.83;;;8.63;;
11665;SDS011;5889;51.350;6.708;2024-01-25T08:01:02;63.63;;;11.20;;
11665;SDS011;5889;51.350;6.708;2024-01-25T08:03:31;53.90;;;9.67;;
11665;SDS011;5889;51.350;6.708;2024-01-25T08:05:58;55.27;;;10.50;;
11665;SDS011;5889;51.350;6.708;2024-01-25T08:08:26;47.67;;;9.77;;
11665;SDS011;5889;51.350;6.708;2024-01-25T08:10:53;58.60;;;9.43;;
11665;SDS011;5889;51.350;6.708;2024-01-25T08:13:20;63.03;;;9.97;;
11665;SDS011;5889;51.350;6.708;2024-01-25T08:15:48;48.20;;;9.03;;
11665;SDS011;5889;51.350;6.708;2024-01-25T08:18:15;57.00;;;10.07;;
11665;SDS011;5889;51.350;6.708;2024-01-25T08:20:44;43.10;;;8.43;;
11665;SDS011;5889;51.350;6.708;2024-01-25T08:23:12;44.83;;;9.37;;
11665;SDS011;5889;51.350;6.708;2024-01-25T08:25:40;53.07;;;8.80;;
11665;SDS011;5889;51.350;6.708;2024-01-25T08:28:07;45.73;;;9.13;;
11665;SDS011;5889;51.350;6.708;2024-01-25T08:30:34;58.37;;;9.47;;
11665;SDS011;5889;51.350;6.708;2024-01-25T08:33:01;68.30;;;10.07;;
11665;SDS011;5889;51.350;6.708;2024-01-25T08:35:28;47.57;;;8.80;;
11665;SDS011;5889;51.350;6.708;2024-01-25T08:37:55;67.30;;;9.83;;
11665;SDS011;5889;51.350;6.708;2024-01-25T08:40:22;53.67;;;9.87;;
11665;SDS011;5889;51.350;6.708;2024-01-25T08:42:51;56.37;;;9.77;;
11665;SDS011;5889;51.350;6.708;2024-01-25T08:45:18;47.87;;;9.83;;
11665;SDS011;5889;51.350;6.708;2024-01-25T08:47:45;56.80;;;10.47;;
11665;SDS011;5889;51.350;6.708;2024-01-25T08:50:14;77.33;;;10.40;;
11665;SDS011;5889;51.350;6.708;2024-01-25T08:52:41;59.60;;;9.97;;
11665;SDS011;5889;51.350;6.708;2024-01-25T08:55:08;50.60;;;10.70;;
11665;SDS011;5889;51.350;6.708;2024-01-25T08:57:35;55.40;;;11.20;;
11665;SDS011;5889;51.350;6.708;2024-01-25T09:00:04;69.60;;;11.80;;
11665;SDS011;5889;51.350;6.708;2024-01-25T09:02:36;60.20;;;11.57;;
11665;SDS011;5889;51.350;6.708;2024-01-25T09:05:03;67.87;;;12.90;;
11665;SDS011;5889;51.350;6.708;2024-01-25T09:07:31;64.10;;;14.73;;
11665;SDS011;5889;51.350;6.708;2024-01-25T09:09:58;55.27;;;11.87;;
11665;SDS011;5889;51.350;6.708;2024-01-25T09:12:24;60.13;;;12.47;;
11665;SDS011;5889;51.350;6.708;2024-01-25T09:14:51;56.93;;;11.90;;
11665;SDS011;5889;51.350;6.708;2024-01-25T09:17:20;69.37;;;14.13;;
11665;SDS011;5889;51.350;6.708;2024-01-25T09:19:47;57.23;;;13.27;;
11665;SDS011;5889;51.350;6.708;2024-01-25T09:22:16;66.77;;;13.50;;
11665;SDS011;5889;51.350;6.708;2024-01-25T09:24:44;60.23;;;15.47;;
11665;SDS011;5889;51.350;6.708;2024-01-25T09:27:11;57.67;;;15.47;;
11665;SDS011;5889;51.350;6.708;2024-01-25T09:29:38;78.67;;;17.30;;
11665;SDS011;5889;51.350;6.708;2024-01-25T09:32:06;75.03;;;16.70;;
11665;SDS011;5889;51.350;6.708;2024-01-25T09:34:35;73.37;;;18.33;;
11665;SDS011;5889;51.350;6.708;2024-01-25T09:37:02;80.50;;;19.20;;
11665;SDS011;5889;51.350;6.708;2024-01-25T09:39:30;78.20;;;18.77;;
11665;SDS011;5889;51.350;6.708;2024-01-25T09:41:57;73.17;;;18.73;;
11665;SDS011;5889;51.350;6.708;2024-01-25T09:44:24;75.83;;;19.70;;
11665;SDS011;5889;51.350;6.708;2024-01-25T09:46:51;82.63;;;21.33;;
11665;SDS011;5889;51.350;6.708;2024-01-25T09:49:18;73.93;;;20.50;;
11665;SDS011;5889;51.350;6.708;2024-01-25T09:51:50;70.33;;;19.77;;
11665;SDS011;5889;51.350;6.708;2024-01-25T09:54:18;68.60;;;20.33;;
11665;SDS011;5889;51.350;6.708;2024-01-25T09:56:45;83.33;;;23.40;;
11665;SDS011;5889;51.350;6.708;2024-01-25T09:59:16;76.67;;;20.43;;
11665;SDS011;5889;51.350;6.708;2024-01-25T10:01:43;83.67;;;21.73;;
11665;SDS011;5889;51.350;6.708;2024-01-25T10:04:11;75.10;;;21.63;;
11665;SDS011;5889;51.350;6.708;2024-01-25T10:06:38;87.80;;;21.57;;
11665;SDS011;5889;51.350;6.708;2024-01-25T10:09:06;76.30;;;21.43;;
11665;SDS011;5889;51.350;6.708;2024-01-25T10:11:35;74.27;;;20.83;;
11665;SDS011;5889;51.350;6.708;2024-01-25T10:14:02;71.07;;;20.70;;
11665;SDS011;5889;51.350;6.708;2024-01-25T10:16:29;66.90;;;20.80;;
11665;SDS011;5889;51.350;6.708;2024-01-25T10:18:57;66.90;;;20.97;;
11665;SDS011;5889;51.350;6.708;2024-01-25T10:21:24;63.03;;;21.30;;
11665;SDS011;5889;51.350;6.708;2024-01-25T10:23:52;59.27;;;21.00;;
11665;SDS011;5889;51.350;6.708;2024-01-25T10:26:21;72.73;;;21.03;;
11665;SDS011;5889;51.350;6.708;2024-01-25T10:28:51;75.87;;;20.97;;
11665;SDS011;5889;51.350;6.708;2024-01-25T10:31:22;68.87;;;21.97;;
11665;SDS011;5889;51.350;6.708;2024-01-25T10:33:49;71.13;;;21.37;;
11665;SDS011;5889;51.350;6.708;2024-01-25T10:36:18;72.90;;;23.17;;
11665;SDS011;5889;51.350;6.708;2024-01-25T10:38:47;67.73;;;22.53;;
11665;SDS011;5889;51.350;6.708;2024-01-25T10:41:15;80.27;;;22.40;;
11665;SDS011;5889;51.350;6.708;2024-01-25T10:43:44;77.67;;;21.73;;
11665;SDS011;5889;51.350;6.708;2024-01-25T10:46:12;77.53;;;19.50;;
11665;SDS011;5889;51.350;6.708;2024-01-25T10:48:38;66.20;;;19.23;;
11665;SDS011;5889;51.350;6.708;2024-01-25T10:51:06;62.10;;;21.13;;
11665;SDS011;5889;51.350;6.708;2024-01-25T10:53:35;64.90;;;19.20;;
11665;SDS011;5889;51.350;6.708;2024-01-25T10:56:03;65.73;;;20.07;;
11665;SDS011;5889;51.350;6.708;2024-01-25T10:58:31;78.93;;;19.90;;
11665;SDS011;5889;51.350;6.708;2024-01-25T11:01:01;67.27;;;19.00;;
11665;SDS011;5889;51.350;6.708;2024-01-25T11:03:29;65.20;;;18.53;;
11665;SDS011;5889;51.350;6.708;2024-01-25T11:06:05;55.07;;;16.57;;
11665;SDS011;5889;51.350;6.708;2024-01-25T11:08:34;66.43;;;17.73;;
11665;SDS011;5889;51.350;6.708;2024-01-25T11:11:03;57.80;;;16.63;;
11665;SDS011;5889;51.350;6.708;2024-01-25T11:13:33;62.97;;;16.93;;
11665;SDS011;5889;51.350;6.708;2024-01-25T11:16:11;58.57;;;16.17;;
11665;SDS011;5889;51.350;6.708;2024-01-25T11:18:48;65.37;;;16.30;;
11665;SDS011;5889;51.350;6.708;2024-01-25T11:21:25;56.30;;;15.93;;
11665;SDS011;5889;51.350;6.708;2024-01-25T11:23:59;62.10;;;16.37;;
11665;SDS011;5889;51.350;6.708;2024-01-25T11:26:27;57.50;;;17.73;;
11665;SDS011;5889;51.350;6.708;2024-01-25T11:28:55;56.40;;;15.17;;
11665;SDS011;5889;51.350;6.708;2024-01-25T11:31:26;60.87;;;16.13;;
11665;SDS011;5889;51.350;6.708;2024-01-25T11:33:56;60.10;;;16.90;;
11665;SDS011;5889;51.350;6.708;2024-01-25T11:36:23;57.60;;;15.90;;
11665;SDS011;5889;51.350;6.708;2024-01-25T11:38:52;51.03;;;15.83;;
11665;SDS011;5889;51.350;6.708;2024-01-25T11:41:19;46.57;;;15.57;;
11665;SDS011;5889;51.350;6.708;2024-01-25T11:43:48;61.67;;;15.87;;
11665;SDS011;5889;51.350;6.708;2024-01-25T11:46:15;64.87;;;17.13;;
11665;SDS011;5889;51.350;6.708;2024-01-25T11:48:44;55.70;;;16.83;;
11665;SDS011;5889;51.350;6.708;2024-01-25T11:51:11;58.03;;;17.23;;
11665;SDS011;5889;51.350;6.708;2024-01-25T11:53:39;64.90;;;19.70;;
11665;SDS011;5889;51.350;6.708;2024-01-25T11:56:06;67.77;;;16.93;;
11665;SDS011;5889;51.350;6.708;2024-01-25T11:58:39;57.60;;;16.53;;
11665;SDS011;5889;51.350;6.708;2024-01-25T12:01:07;49.23;;;17.47;;
11665;SDS011;5889;51.350;6.708;2024-01-25T12:03:35;55.80;;;18.87;;
11665;SDS011;5889;51.350;6.708;2024-01-25T12:06:04;61.20;;;18.67;;
11665;SDS011;5889;51.350;6.708;2024-01-25T12:08:32;54.53;;;17.23;;
11665;SDS011;5889;51.350;6.708;2024-01-25T12:11:02;57.43;;;17.03;;
11665;SDS011;5889;51.350;6.708;2024-01-25T12:13:33;57.60;;;18.17;;
11665;SDS011;5889;51.350;6.708;2024-01-25T12:16:01;64.83;;;19.97;;
11665;SDS011;5889;51.350;6.708;2024-01-25T12:18:30;54.37;;;18.70;;
11665;SDS011;5889;51.350;6.708;2024-01-25T12:20:57;54.63;;;19.17;;
11665;SDS011;5889;51.350;6.708;2024-01-25T12:23:33;52.77;;;19.27;;
11665;SDS011;5889;51.350;6.708;2024-01-25T12:26:01;62.00;;;19.00;;
11665;SDS011;5889;51.350;6.708;2024-01-25T12:28:29;63.73;;;21.13;;
11665;SDS011;5889;51.350;6.708;2024-01-25T12:30:57;58.03;;;18.20;;
11665;SDS011;5889;51.350;6.708;2024-01-25T12:33:24;58.70;;;19.17;;
11665;SDS011;5889;51.350;6.708;2024-01-25T12:35:51;63.70;;;17.23;;
11665;SDS011;5889;51.350;6.708;2024-01-25T12:38:19;57.00;;;18.43;;
11665;SDS011;5889;51.350;6.708;2024-01-25T12:40:48;59.53;;;19.90;;
11665;SDS011;5889;51.350;6.708;2024-01-25T12:43:15;56.23;;;19.27;;
11665;SDS011;5889;51.350;6.708;2024-01-25T12:45:43;71.60;;;20.57;;
11665;SDS011;5889;51.350;6.708;2024-01-25T12:48:09;58.50;;;19.37;;
11665;SDS011;5889;51.350;6.708;2024-01-25T12:50:37;56.70;;;18.23;;
11665;SDS011;5889;51.350;6.708;2024-01-25T12:53:04;65.33;;;20.90;;
11665;SDS011;5889;51.350;6.708;2024-01-25T12:55:32;58.70;;;18.23;;
11665;SDS011;5889;51.350;6.708;2024-01-25T12:58:01;64.73;;;20.53;;
11665;SDS011;5889;51.350;6.708;2024-01-25T13:00:29;62.13;;;18.70;;
11665;SDS011;5889;51.350;6.708;2024-01-25T13:02:56;62.43;;;19.97;;
11665;SDS011;5889;51.350;6.708;2024-01-25T13:05:23;67.83;;;19.17;;
11665;SDS011;5889;51.350;6.708;2024-01-25T13:07:50;58.17;;;19.80;;
11665;SDS011;5889;51.350;6.708;2024-01-25T13:10:17;60.83;;;19.67;;
11665;SDS011;5889;51.350;6.708;2024-01-25T13:12:44;64.83;;;19.47;;
11665;SDS011;5889;51.350;6.708;2024-01-25T13:15:12;64.30;;;20.67;;
11665;SDS011;5889;51.350;6.708;2024-01-25T13:17:39;52.27;;;19.37;;
11665;SDS011;5889;51.350;6.708;2024-01-25T13:20:07;57.50;;;21.20;;
11665;SDS011;5889;51.350;6.708;2024-01-25T13:22:34;76.00;;;22.10;;
11665;SDS011;5889;51.350;6.708;2024-01-25T13:25:01;65.17;;;19.57;;
11665;SDS011;5889;51.350;6.708;2024-01-25T13:27:30;57.33;;;19.33;;
11665;SDS011;5889;51.350;6.708;2024-01-25T13:29:57;52.80;;;18.63;;
11665;SDS011;5889;51.350;6.708;2024-01-25T13:32:25;60.53;;;20.23;;
11665;SDS011;5889;51.350;6.708;2024-01-25T13:34:52;63.20;;;19.43;;
11665;SDS011;5889;51.350;6.708;2024-01-25T13:37:19;69.47;;;20.80;;
11665;SDS011;5889;51.350;6.708;2024-01-25T13:39:46;55.97;;;18.93;;
11665;SDS011;5889;51.350;6.708;2024-01-25T13:42:13;55.67;;;18.87;;
11665;SDS011;5889;51.350;6.708;2024-01-25T13:44:40;54.97;;;18.07;;
11665;SDS011;5889;51.350;6.708;2024-01-25T13:47:06;62.40;;;18.30;;
11665;SDS011;5889;51.350;6.708;2024-01-25T13:49:35;60.17;;;18.73;;
11665;SDS011;5889;51.350;6.708;2024-01-25T13:52:02;62.67;;;18.63;;
11665;SDS011;5889;51.350;6.708;2024-01-25T13:54:29;60.67;;;17.67;;
11665;SDS011;5889;51.350;6.708;2024-01-25T13:56:56;59.83;;;16.87;;
11665;SDS011;5889;51.350;6.708;2024-01-25T13:59:23;54.63;;;17.37;;
11665;SDS011;5889;51.350;6.708;2024-01-25T14:01:50;60.63;;;17.77;;
11665;SDS011;5889;51.350;6.708;2024-01-25T14:04:17;59.00;;;16.17;;
11665;SDS011;5889;51.350;6.708;2024-01-25T14:06:46;61.53;;;16.60;;
11665;SDS011;5889;51.350;6.708;2024-01-25T14:09:13;44.27;;;15.43;;
11665;SDS011;5889;51.350;6.708;2024-01-25T14:11:40;51.73;;;15.70;;
11665;SDS011;5889;51.350;6.708;2024-01-25T14:14:07;58.47;;;16.13;;
11665;SDS011;5889;51.350;6.708;2024-01-25T14:16:34;48.63;;;14.77;;
11665;SDS011;5889;51.350;6.708;2024-01-25T14:19:02;56.77;;;14.53;;
11665;SDS011;5889;51.350;6.708;2024-01-25T14:21:29;57.70;;;14.47;;
11665;SDS011;5889;51.350;6.708;2024-01-25T14:23:57;44.80;;;14.03;;
11665;SDS011;5889;51.350;6.708;2024-01-25T14:26:24;54.53;;;15.30;;
11665;SDS011;5889;51.350;6.708;2024-01-25T14:28:51;43.63;;;13.43;;
11665;SDS011;5889;51.350;6.708;2024-01-25T14:31:18;55.23;;;15.07;;
11665;SDS011;5889;51.350;6.708;2024-01-25T14:33:45;54.83;;;14.67;;
11665;SDS011;5889;51.350;6.708;2024-01-25T14:36:12;50.70;;;15.03;;
11665;SDS011;5889;51.350;6.708;2024-01-25T14:38:40;53.63;;;15.30;;
11665;SDS011;5889;51.350;6.708;2024-01-25T14:41:09;45.00;;;13.83;;
11665;SDS011;5889;51.350;6.708;2024-01-25T14:43:36;57.53;;;14.87;;
11665;SDS011;5889;51.350;6.708;2024-01-25T14:46:04;56.43;;;14.63;;